Etusivu
METAR-TAF:

METAR-TAF

Lentoasemat :

Tšita, Venäjä

Leveyspiiri: 52-05N, Pituuspiiri: 113-29E, korkeus merenpinnasta: 685 m

Tämänhetkinen sää

Tämä raportti tehtiin 40 minuuttia sitten, kello 05.00 UTC
Tuuli 10 kn lännestä
Lämpötila -13°C
Kosteus 39%
Ilmanpaine 1017 hPa
Näkyvyys 10 km tai enemmän
Hajanaisia pilviä 4300 ft:n korkeudessa, Cumulonimbus.

METAR: UIAA 130500Z 27005MPS 9999 SCT043CB M13/M24 Q1017 R29/CLRD70 NOSIG RMK QFE704/0939

Aika: 14:40 (05:40 UTC)

Sääennuste

Tämä raportti tehtiin 3 tuntia ja 40 minuuttia sitten, kello 02.00 UTC
Ennuste voimassa 13. päivästä klo 03 UTC - 14. päivään klo 03 UTC
Tuuli 6 kn lounaasta puuskistuen 16 kn:hen
Näkyvyys 10 km tai enemmän

TAF: UIAA 130200Z 1303/1403 23003G08MPS 9999 NSC

Säähavainnot ja -ennusteet yli 4000 lentoasemalta (METAR- ja TAF-raportit).

Käytössä olevat sääasemat on merkitty karttaan keltaisilla ja punaisilla pisteillä.

Aseta hiiri pisteen päälle nähdäksesi sääaseman nimen.

Klikkaa sitten nähdäksesi säähavainnot ja -ennusteet.

Kartan vaihtaminen: klikkaa mustalla rastilla varustettuja vihreitä pisteitä, niin voit zoomata sisään; viivalla varustettua vihreää pistettä, niin voit zoomata ulos tai vihreitä nuolia, niin pääset viereisille kartoille.


METAR-TAF: